Time;durP1;ratioP1;P1;durP2;ratioP2;P2;SDS_P1;SDS_P2;PMS_P1;PMS_P2;Temp;Humidity;BMP_temperature;BMP_pressure;BME280_temperature;BME280_humidity;BME280_pressure;Samples;Min_cycle;Max_cycle;Signal;HPM_P1;HPM_P2
2022/12/03 00:05:54;;;;;;;12.25;7.82;;;;;;;20.17;54.02;101141.16;20664213;28;20279;-80
2022/12/03 00:15:56;;;;;;;11.82;6.50;;;;;;;20.14;54.11;101157.13;20644233;28;20038;-81
2022/12/03 00:25:56;;;;;;;8.40;6.43;;;;;;;20.12;54.38;101161.66;20659786;28;20137;-80
2022/12/03 00:35:57;;;;;;;9.65;6.53;;;;;;;20.11;53.89;101167.84;20653435;28;20034;-80
2022/12/03 00:45:57;;;;;;;10.55;6.72;;;;;;;20.07;54.21;101163.72;20647863;28;20453;-81
2022/12/03 00:56:00;;;;;;;10.68;7.10;;;;;;;20.03;54.14;101164.81;20650313;28;20101;-80
2022/12/03 01:06:00;;;;;;;9.93;6.90;;;;;;;20.01;54.23;101162.28;20651046;28;20077;-81
2022/12/03 01:16:01;;;;;;;9.65;6.97;;;;;;;19.98;53.90;101158.06;20639594;28;20034;-81
2022/12/03 01:26:01;;;;;;;9.70;6.97;;;;;;;19.99;53.90;101161.53;20655342;28;20068;-82
2022/12/03 01:36:02;;;;;;;9.40;6.90;;;;;;;19.96;54.21;101169.63;20653832;28;20034;-82
2022/12/03 01:46:02;;;;;;;9.43;6.90;;;;;;;19.95;54.18;101179.25;20638984;28;20049;-80
2022/12/03 01:56:03;;;;;;;10.10;6.60;;;;;;;19.91;54.18;101171.66;20656745;28;20051;-80
2022/12/03 02:06:08;;;;;;;8.75;6.60;;;;;;;19.90;54.40;101170.81;20648567;28;20043;-79
2022/12/03 02:16:09;;;;;;;10.13;5.90;;;;;;;19.91;54.06;101167.25;20642339;28;20050;-80
2022/12/03 02:26:09;;;;;;;8.23;5.95;;;;;;;19.94;53.68;101161.78;20648849;28;20034;-80
2022/12/03 02:36:10;;;;;;;9.15;6.68;;;;;;;19.94;53.90;101161.78;20653530;28;20045;-80
2022/12/03 02:46:11;;;;;;;8.88;6.47;;;;;;;19.96;54.02;101165.19;20642047;28;20066;-77
2022/12/03 02:56:15;;;;;;;8.77;6.45;;;;;;;19.99;53.60;101165.03;20641991;28;20088;-78
2022/12/03 03:06:17;;;;;;;7.55;5.72;;;;;;;19.98;53.68;101165.94;20663648;28;20544;-80
2022/12/03 03:16:18;;;;;;;8.90;5.87;;;;;;;19.98;53.69;101160.69;20652691;28;20588;-78
2022/12/03 03:26:18;;;;;;;8.70;5.85;;;;;;;20.00;53.97;101157.97;20661791;28;20087;-80
2022/12/03 03:36:19;;;;;;;7.43;5.72;;;;;;;20.02;53.82;101161.34;20647701;28;20070;-80
2022/12/03 03:46:21;;;;;;;9.52;6.60;;;;;;;19.98;53.89;101162.47;20647674;28;20037;-82
2022/12/03 03:56:22;;;;;;;7.57;6.07;;;;;;;19.95;54.08;101160.03;20662040;28;20045;-81
2022/12/03 04:06:22;;;;;;;7.25;5.60;;;;;;;19.98;53.65;101157.19;20653832;28;20046;-81
2022/12/03 04:16:23;;;;;;;7.53;5.80;;;;;;;19.96;53.73;101169.63;20658969;28;20140;-80
2022/12/03 04:36:42;;;;;;;7.90;5.75;;;;;;;19.96;53.94;101172.25;20650136;28;20121;-81
2022/12/03 04:46:43;;;;;;;8.10;6.05;;;;;;;19.95;53.68;101173.19;20648591;28;20056;-79
2022/12/03 04:56:43;;;;;;;8.80;6.38;;;;;;;19.94;53.71;101176.72;20651189;28;20038;-80
2022/12/03 05:06:44;;;;;;;9.20;6.22;;;;;;;19.94;53.65;101185.44;20656971;28;20042;-79
2022/12/03 05:16:45;;;;;;;9.32;5.97;;;;;;;19.98;53.57;101178.22;20641544;28;20552;-80
2022/12/03 05:26:46;;;;;;;8.45;6.18;;;;;;;20.05;53.63;101184.81;20654416;28;20053;-81
2022/12/03 05:36:46;;;;;;;8.50;5.85;;;;;;;20.10;53.18;101180.16;20646958;28;20054;-81
2022/12/03 05:46:46;;;;;;;9.18;6.13;;;;;;;20.16;52.93;101189.44;20645245;28;20073;-81
2022/12/03 05:56:47;;;;;;;8.65;6.00;;;;;;;20.22;53.30;101189.06;20650676;28;20050;-82
2022/12/03 06:06:47;;;;;;;11.90;5.50;;;;;;;20.30;53.83;101204.41;20641583;28;20038;-81
2022/12/03 06:16:48;;;;;;;10.20;6.20;;;;;;;20.37;53.47;101200.44;20645618;28;20050;-81
2022/12/03 06:26:48;;;;;;;9.82;5.88;;;;;;;20.43;53.53;101207.09;20603555;28;20062;-82
2022/12/03 06:36:49;;;;;;;9.95;5.88;;;;;;;20.48;53.37;101195.38;20668511;28;20085;-80
2022/12/03 06:46:49;;;;;;;8.70;6.15;;;;;;;20.52;53.06;101209.19;20664564;28;20053;-81
2022/12/03 06:56:49;;;;;;;10.02;6.10;;;;;;;20.59;53.23;101202.59;20655357;28;20046;-79
2022/12/03 07:06:50;;;;;;;9.15;5.70;;;;;;;20.66;54.09;101218.00;20644213;28;20053;-81
2022/12/03 07:16:50;;;;;;;9.15;5.80;;;;;;;20.76;54.77;101206.00;20659066;28;20409;-84
2022/12/03 07:26:53;;;;;;;8.27;6.00;;;;;;;20.83;55.09;101211.72;20691859;28;20045;-84
2022/12/03 07:36:53;;;;;;;9.98;5.47;;;;;;;20.90;54.87;101213.03;20713464;28;20132;-86
2022/12/03 07:47:09;;;;;;;11.32;5.95;;;;;;;20.98;54.98;101217.81;20680595;28;20049;-86
2022/12/03 07:57:09;;;;;;;11.18;6.18;;;;;;;21.04;54.86;101199.81;20676717;28;20486;-85
2022/12/03 08:07:10;;;;;;;10.07;6.68;;;;;;;21.10;54.40;101220.53;20663821;28;20053;-86
2022/12/03 08:17:13;;;;;;;24.48;13.50;;;;;;;20.58;47.64;101215.84;20670063;28;20045;-84
2022/12/03 08:27:17;;;;;;;16.17;10.10;;;;;;;20.95;51.13;101210.94;20700963;28;20030;-84
2022/12/03 08:37:18;;;;;;;17.48;8.88;;;;;;;21.08;52.25;101225.03;20689314;28;20484;-84
2022/12/03 08:47:20;;;;;;;12.65;8.40;;;;;;;21.15;53.44;101222.00;20675127;28;20038;-87
2022/12/03 08:57:25;;;;;;;16.63;8.53;;;;;;;21.20;53.33;101226.03;20674539;28;20077;-86
2022/12/03 09:07:26;;;;;;;11.85;8.10;;;;;;;21.24;53.42;101242.50;20696453;28;20034;-85
2022/12/03 09:17:26;;;;;;;13.75;7.20;;;;;;;21.26;53.16;101230.03;20681876;28;20131;-87
2022/12/03 09:27:27;;;;;;;11.35;7.75;;;;;;;21.27;53.67;101219.41;20663280;28;20061;-81
2022/12/03 09:37:27;;;;;;;10.95;7.18;;;;;;;21.31;53.29;101212.16;20676803;28;20038;-87
2022/12/03 09:47:29;;;;;;;12.05;7.60;;;;;;;21.32;53.64;101207.75;20686880;28;20038;-88
2022/12/03 09:57:30;;;;;;;11.17;7.07;;;;;;;21.33;53.49;101197.09;20677748;28;20054;-91
2022/12/03 10:07:30;;;;;;;12.07;7.57;;;;;;;21.37;52.91;101192.47;20673724;28;20296;-86
2022/12/03 10:17:35;;;;;;;8.90;6.22;;;;;;;21.42;53.13;101183.34;20667790;28;20298;-84
2022/12/03 10:27:35;;;;;;;8.10;6.30;;;;;;;21.50;53.06;101174.91;20651120;28;20046;-81
2022/12/03 10:37:36;;;;;;;8.88;6.07;;;;;;;21.55;52.83;101153.53;20653991;28;20113;-78
2022/12/03 10:47:37;;;;;;;14.50;9.90;;;;;;;21.34;45.13;101142.63;20654272;28;20038;-85
2022/12/03 10:57:38;;;;;;;17.65;8.13;;;;;;;21.48;47.46;101139.06;20601118;28;20101;-82
2022/12/03 11:07:41;;;;;;;10.52;7.47;;;;;;;21.56;48.60;101129.72;20636590;28;20057;-88
2022/12/03 11:17:44;;;;;;;10.87;7.30;;;;;;;21.60;48.79;101119.84;20648797;28;20528;-86
2022/12/03 11:28:10;;;;;;;12.20;6.20;;;;;;;21.67;49.24;101107.09;20668274;28;20287;-83
2022/12/03 11:38:35;;;;;;;12.52;6.53;;;;;;;21.77;49.62;101087.06;20659624;28;20057;-85
2022/12/03 11:48:43;;;;;;;13.68;6.40;;;;;;;21.91;50.56;101083.47;20625724;28;20046;-86
2022/12/03 11:58:46;;;;;;;10.00;5.93;;;;;;;22.01;50.92;101086.31;20636230;28;20088;-87
2022/12/03 12:08:49;;;;;;;14.05;6.35;;;;;;;22.07;50.60;101068.25;20673794;28;20480;-83
2022/12/03 12:18:52;;;;;;;11.10;6.68;;;;;;;22.13;51.65;101066.13;20632594;28;20053;-85
2022/12/03 12:28:53;;;;;;;16.67;8.98;;;;;;;22.17;54.26;101039.44;20645591;28;21400;-84
2022/12/03 12:38:53;;;;;;;20.30;9.80;;;;;;;22.25;55.77;101056.50;20662068;28;20041;-83
2022/12/03 12:48:55;;;;;;;15.73;9.52;;;;;;;22.20;55.44;101052.41;20630420;28;20042;-83
2022/12/03 12:59:09;;;;;;;14.13;8.80;;;;;;;22.17;54.87;101038.59;20671896;28;20052;-86
2022/12/03 13:09:22;;;;;;;19.45;8.35;;;;;;;22.10;53.98;101043.44;20663114;28;20070;-87
2022/12/03 13:19:25;;;;;;;14.20;7.53;;;;;;;22.01;54.05;101039.69;20683186;28;20049;-86
2022/12/03 13:29:26;;;;;;;12.10;7.20;;;;;;;21.98;54.13;101052.22;20689142;28;20050;-86
2022/12/03 13:39:31;;;;;;;11.38;7.45;;;;;;;21.94;53.81;101046.34;20680908;28;21017;-86
2022/12/03 13:49:33;;;;;;;11.57;6.60;;;;;;;21.90;53.45;101052.78;20664732;28;20151;-84
2022/12/03 13:59:33;;;;;;;9.63;6.60;;;;;;;21.85;53.74;101049.59;20648749;28;20042;-88
2022/12/03 14:09:34;;;;;;;10.45;6.05;;;;;;;21.80;53.91;101064.91;20630706;28;20283;-87
2022/12/03 14:19:34;;;;;;;12.23;6.32;;;;;;;;;;20671867;28;20524;-87
2022/12/03 14:29:35;;;;;;;8.55;5.75;;;;;;;21.77;54.19;101070.41;20655499;28;20408;-87
2022/12/03 14:39:36;;;;;;;12.90;6.15;;;;;;;21.73;53.48;101067.97;20657718;28;20049;-82
2022/12/03 14:49:36;;;;;;;18.65;5.43;;;;;;;21.69;53.40;101071.78;20644245;28;20050;-78
2022/12/03 14:59:38;;;;;;;9.93;5.65;;;;;;;21.61;53.23;101084.63;20652151;28;20073;-84
2022/12/03 15:09:38;;;;;;;12.90;5.45;;;;;;;21.62;53.03;101086.31;20673539;28;20038;-81
2022/12/03 15:19:38;;;;;;;10.07;5.20;;;;;;;21.57;53.38;101083.16;20654415;28;20472;-81
2022/12/03 15:29:39;;;;;;;8.07;4.78;;;;;;;21.57;53.26;101075.25;20651415;28;20053;-83
2022/12/03 15:39:46;;;;;;;8.27;5.20;;;;;;;21.58;53.09;101077.78;20668104;28;20042;-83
2022/12/03 15:49:47;;;;;;;10.90;5.30;;;;;;;21.57;53.10;101086.63;20670756;28;20510;-81
2022/12/03 15:59:48;;;;;;;8.05;4.70;;;;;;;21.57;52.84;101083.16;20659728;28;20046;-84
2022/12/03 16:09:48;;;;;;;9.85;5.03;;;;;;;21.56;52.74;101073.53;20670166;28;20064;-81
2022/12/03 16:19:49;;;;;;;8.13;4.90;;;;;;;21.50;52.73;101090.59;20652416;28;20794;-84
2022/12/03 16:29:49;;;;;;;6.50;4.43;;;;;;;21.48;52.72;101103.00;20655408;28;20049;-82
2022/12/03 16:39:50;;;;;;;6.45;4.90;;;;;;;21.47;52.48;101096.09;20655120;28;25321;-81
2022/12/03 16:49:50;;;;;;;5.82;4.20;;;;;;;21.42;52.57;101096.38;20665304;28;20046;-84
2022/12/03 16:59:50;;;;;;;6.05;4.50;;;;;;;21.42;52.29;101095.53;20658819;28;20042;-80
2022/12/03 17:09:51;;;;;;;6.57;4.78;;;;;;;21.39;52.78;101093.13;20666557;28;20064;-82
2022/12/03 17:19:52;;;;;;;7.30;4.50;;;;;;;21.35;52.46;101100.38;20633953;28;20049;-82
2022/12/03 17:29:52;;;;;;;8.75;4.65;;;;;;;21.33;52.53;101104.91;20656952;28;20042;-81
2022/12/03 17:39:53;;;;;;;7.95;4.80;;;;;;;21.28;52.58;101099.94;20661218;28;20073;-79
2022/12/03 17:49:53;;;;;;;5.75;4.40;;;;;;;21.25;52.50;101097.50;20648506;28;20136;-81
2022/12/03 17:59:53;;;;;;;5.95;4.70;;;;;;;21.24;52.38;101097.63;20649121;28;20125;-83
2022/12/03 18:09:54;;;;;;;6.10;4.47;;;;;;;21.22;52.40;101095.06;20657898;28;20069;-83
2022/12/03 18:19:54;;;;;;;6.22;4.65;;;;;;;21.17;52.65;101102.44;20656463;28;20081;-83
2022/12/03 18:29:55;;;;;;;12.90;7.50;;;;;;;21.00;49.70;101103.53;20649329;28;20177;-85
2022/12/03 18:39:56;;;;;;;12.10;6.82;;;;;;;21.09;51.66;101099.47;20668697;28;20046;-79
2022/12/03 18:49:56;;;;;;;11.27;5.72;;;;;;;21.06;51.52;101097.88;20679818;28;20048;-82
2022/12/03 18:59:57;;;;;;;7.95;5.55;;;;;;;21.15;52.11;101106.13;20647788;28;20042;-79
2022/12/03 19:09:57;;;;;;;7.93;5.32;;;;;;;21.13;51.97;101090.44;20643641;28;20401;-82
2022/12/03 19:19:58;;;;;;;7.35;5.30;;;;;;;21.10;52.12;101101.16;20658109;28;20456;-79
2022/12/03 19:29:58;;;;;;;8.10;5.70;;;;;;;21.10;51.98;101111.69;20648837;28;20042;-81
2022/12/03 19:39:59;;;;;;;13.48;6.35;;;;;;;21.10;52.33;101109.91;20627311;28;20061;-83
2022/12/03 19:50:00;;;;;;;14.10;5.90;;;;;;;21.10;52.71;101119.59;20664081;28;20050;-85
2022/12/03 20:00:00;;;;;;;9.73;5.53;;;;;;;21.11;52.60;101121.28;20644509;28;21263;-83
2022/12/03 20:10:01;;;;;;;7.28;5.13;;;;;;;21.16;52.70;101124.44;20643547;28;20039;-82
2022/12/03 20:20:01;;;;;;;7.55;5.32;;;;;;;21.17;52.97;101120.03;20626024;28;20046;-82
2022/12/03 20:30:03;;;;;;;8.80;5.97;;;;;;;21.17;53.20;101117.41;20613419;28;20224;-82
2022/12/03 20:40:04;;;;;;;22.87;6.90;;;;;;;21.11;51.69;101114.22;20578793;28;20061;-81
2022/12/03 20:50:05;;;;;;;11.38;6.05;;;;;;;21.22;52.33;101108.25;20636922;28;20129;-78
2022/12/03 21:00:06;;;;;;;10.63;6.43;;;;;;;21.21;51.90;101114.44;20606250;28;20050;-78
2022/12/03 21:10:34;;;;;;;9.10;5.80;;;;;;;21.21;51.80;101111.81;20568382;28;20040;-79
2022/12/03 21:20:28;;;;;;;16.70;6.13;;;;;;;21.24;52.76;101102.91;20617841;28;20042;-78
2022/12/03 21:30:28;;;;;;;10.13;5.70;;;;;;;21.23;53.21;101112.56;20619824;28;20871;-80
2022/12/03 21:40:28;;;;;;;9.13;5.60;;;;;;;21.20;53.44;101118.06;20607142;28;20054;-79
2022/12/03 21:50:29;;;;;;;14.23;6.18;;;;;;;21.17;53.73;101105.06;20617788;28;20137;-80
2022/12/03 22:00:30;;;;;;;11.40;5.60;;;;;;;21.19;53.69;101105.81;20615712;28;20045;-79
2022/12/03 22:10:30;;;;;;;12.07;5.93;;;;;;;21.16;53.68;101092.00;20608887;28;20052;-79
2022/12/03 22:20:31;;;;;;;12.98;6.40;;;;;;;21.17;53.28;101096.34;20617127;28;20054;-83
2022/12/03 22:30:31;;;;;;;10.55;6.15;;;;;;;21.11;53.63;101089.69;20610711;28;20053;-83
2022/12/03 22:40:32;;;;;;;10.95;5.47;;;;;;;21.03;53.48;101079.66;20627280;28;20124;-81
2022/12/03 22:50:32;;;;;;;7.50;5.63;;;;;;;21.00;53.86;101081.66;20630288;28;20084;-80
2022/12/03 23:00:40;;;;;;;8.15;6.00;;;;;;;20.90;54.00;101076.97;20632037;28;20049;-85
2022/12/03 23:10:43;;;;;;;10.10;5.60;;;;;;;20.84;54.27;101069.47;20634136;28;20038;-83
2022/12/03 23:20:45;;;;;;;7.88;5.45;;;;;;;20.78;54.23;101059.34;20623513;28;20137;-82
2022/12/03 23:30:46;;;;;;;9.77;5.80;;;;;;;20.72;54.51;101059.75;20639701;28;20099;-81
2022/12/03 23:40:46;;;;;;;6.55;5.40;;;;;;;20.68;54.59;101047.69;20643596;28;20050;-85
2022/12/03 23:50:47;;;;;;;8.00;5.28;;;;;;;20.59;54.68;101042.09;20639359;28;20422;-81
